Reliance, South Dakota
Current Conditions -  °F | °C
As of 4:15 PM on Sunday 25 Jan 2015 (Local Time) from K9V9 Reporting Station
Overcast Overcast  
Wind Chill: 39°   Ceiling: 2200
Heat Index: 39°   Visibility: 10mi
Dew Point: 32°   Wind: 3mph
Humidity: 76%   Direction: 290°WNW
Pressure: 30.03"   Gusts: NA
Location:  43.88°N, 99.6°W
Report Text: K9V9 252215Z AUTO 29003KT 10SM OVC022 04/00 A3003 RMK AO2 T00400002
Loading
Personal Weather Stations






























Interactive Weather Map New forecast layout! Learn more

10-Day Weather Forecast

Advertisements
Track Severe Weather on mobile